Time;durP1;ratioP1;P1;durP2;ratioP2;P2;SDS_P1;SDS_P2;PMS_P1;PMS_P2;Temp;Humidity;BMP_temperature;BMP_pressure;BME280_temperature;BME280_humidity;BME280_pressure;Samples;Min_cycle;Max_cycle;Signal;HPM_P1;HPM_P2
2024/01/25 00:01:42;;;;;;;52.93;31.03;;;;;;;;;;10554496;28;20894;-84
2024/01/25 00:06:45;;;;;;;55.08;30.85;;;;;;;;;;10559026;28;20429;-84
2024/01/25 00:11:49;;;;;;;51.87;30.40;;;;;;;;;;10581000;28;20395;-85
2024/01/25 00:16:51;;;;;;;47.53;29.70;;;;;;;;;;10566705;28;20778;-84
2024/01/25 00:21:54;;;;;;;53.38;30.85;;;;;;;;;;10555767;28;20465;-84
2024/01/25 00:26:57;;;;;;;54.37;30.13;;;;;;;;;;10549546;28;20416;-83
2024/01/25 00:32:00;;;;;;;46.67;28.80;;;;;;;;;;10549433;28;20404;-84
2024/01/25 00:37:03;;;;;;;54.50;30.40;;;;;;;;;;10561631;28;20450;-83
2024/01/25 00:42:08;;;;;;;47.22;28.90;;;;;;;;;;10561668;28;20404;-84
2024/01/25 00:47:12;;;;;;;51.23;29.37;;;;;;;;;;10567898;28;20474;-83
2024/01/25 00:52:15;;;;;;;51.67;29.48;;;;;;;;;;10561158;28;20406;-84
2024/01/25 00:57:19;;;;;;;48.67;28.95;;;;;;;;;;10560498;28;20481;-84
2024/01/25 01:02:23;;;;;;;49.50;27.83;;;;;;;;;;10561059;28;20410;-84
2024/01/25 01:07:26;;;;;;;51.80;28.70;;;;;;;;;;10556749;28;20877;-84
2024/01/25 01:12:31;;;;;;;50.97;28.67;;;;;;;;;;10561072;28;20478;-84
2024/01/25 01:17:33;;;;;;;47.80;27.80;;;;;;;;;;10559746;28;20443;-83
2024/01/25 01:22:36;;;;;;;49.17;28.15;;;;;;;;;;10559973;28;20432;-83
2024/01/25 01:27:39;;;;;;;46.90;28.07;;;;;;;;;;10559307;28;20882;-84
2024/01/25 01:32:42;;;;;;;45.47;27.25;;;;;;;;;;10564988;22;20415;-83
2024/01/25 01:37:44;;;;;;;47.55;28.45;;;;;;;;;;10558980;28;20446;-84
2024/01/25 01:42:48;;;;;;;47.63;27.67;;;;;;;;;;10553301;28;20426;-83
2024/01/25 01:47:51;;;;;;;49.00;26.77;;;;;;;;;;10554786;28;20403;-83
2024/01/25 01:52:53;;;;;;;46.03;26.23;;;;;;;;;;10549820;28;20912;-82
2024/01/25 01:57:57;;;;;;;46.03;26.83;;;;;;;;;;10557276;28;20511;-83
2024/01/25 02:03:00;;;;;;;47.90;26.50;;;;;;;;;;10557414;28;20467;-83
2024/01/25 02:08:03;;;;;;;44.85;26.05;;;;;;;;;;10559547;28;20467;-83
2024/01/25 02:13:06;;;;;;;43.42;24.80;;;;;;;;;;10552833;28;20418;-84
2024/01/25 02:18:09;;;;;;;48.20;26.95;;;;;;;;;;10561388;28;20480;-84
2024/01/25 02:23:13;;;;;;;44.42;25.92;;;;;;;;;;10565024;28;20762;-84
2024/01/25 02:28:15;;;;;;;45.97;25.90;;;;;;;;;;10563943;28;20400;-84
2024/01/25 02:33:18;;;;;;;44.58;24.73;;;;;;;;;;10548982;28;20407;-83
2024/01/25 02:38:21;;;;;;;41.53;24.97;;;;;;;;;;10527526;28;20439;-83
2024/01/25 02:43:24;;;;;;;41.67;24.00;;;;;;;;;;10522719;28;20386;-83
2024/01/25 02:48:26;;;;;;;41.58;23.48;;;;;;;;;;10521270;28;20406;-83
2024/01/25 02:53:30;;;;;;;44.00;24.67;;;;;;;;;;10514767;28;20465;-84
2024/01/25 02:58:33;;;;;;;40.37;23.20;;;;;;;;;;10512024;28;20404;-83
2024/01/25 03:03:35;;;;;;;40.28;22.70;;;;;;;;;;10514379;28;20406;-83
2024/01/25 03:08:39;;;;;;;41.10;23.80;;;;;;;;;;10544017;28;20491;-83
2024/01/25 03:13:41;;;;;;;41.40;23.20;;;;;;;;;;10521780;28;20430;-83
2024/01/25 03:18:44;;;;;;;39.63;22.17;;;;;;;;;;10526164;28;20404;-84
2024/01/25 03:23:47;;;;;;;37.88;22.25;;;;;;;;;;10530757;28;20462;-82
2024/01/25 03:28:50;;;;;;;42.92;22.60;;;;;;;;;;10520347;28;20404;-83
2024/01/25 03:33:52;;;;;;;39.30;21.50;;;;;;;;;;10534840;28;20489;-84
2024/01/25 03:38:56;;;;;;;37.83;21.42;;;;;;;;;;10554325;28;20880;-84
2024/01/25 03:43:58;;;;;;;37.88;21.27;;;;;;;;;;10555768;28;20395;-84
2024/01/25 03:49:01;;;;;;;33.47;19.90;;;;;;;;;;10552379;28;20489;-83
2024/01/25 03:54:05;;;;;;;35.87;20.90;;;;;;;;;;10553847;28;20504;-84
2024/01/25 03:59:10;;;;;;;36.00;20.00;;;;;;;;;;10567963;28;20410;-84
2024/01/25 04:04:13;;;;;;;38.67;20.85;;;;;;;;;;10559945;27;20445;-83
2024/01/25 04:09:17;;;;;;;37.53;20.73;;;;;;;;;;10575825;27;20404;-83
2024/01/25 04:14:19;;;;;;;39.63;20.10;;;;;;;;;;10560242;28;20456;-84
2024/01/25 04:19:22;;;;;;;35.88;19.40;;;;;;;;;;10562722;27;20452;-83
2024/01/25 04:24:26;;;;;;;36.83;20.27;;;;;;;;;;10560691;28;20402;-84
2024/01/25 04:29:28;;;;;;;39.42;21.55;;;;;;;;;;10555000;28;20404;-84
2024/01/25 04:34:30;;;;;;;43.77;24.10;;;;;;;;;;10560591;27;20492;-83
2024/01/25 04:39:34;;;;;;;45.47;23.23;;;;;;;;;;10563517;28;20935;-84
2024/01/25 04:44:36;;;;;;;42.08;23.98;;;;;;;;;;10562788;27;20400;-84
2024/01/25 04:49:39;;;;;;;43.08;23.17;;;;;;;;;;10551698;28;20440;-83
2024/01/25 04:54:43;;;;;;;43.95;22.80;;;;;;;;;;10565204;27;20505;-82
2024/01/25 04:59:45;;;;;;;46.40;23.23;;;;;;;;;;10575912;27;20766;-83
2024/01/25 05:04:47;;;;;;;43.17;22.30;;;;;;;;;;10551964;28;20399;-80
2024/01/25 05:09:51;;;;;;;41.58;21.65;;;;;;;;;;10552581;28;20402;-82
2024/01/25 05:14:53;;;;;;;41.47;22.60;;;;;;;;;;10554406;28;20444;-83
2024/01/25 05:19:56;;;;;;;41.38;22.63;;;;;;;;;;10565506;28;20473;-84
2024/01/25 05:25:00;;;;;;;42.30;22.20;;;;;;;;;;10550693;28;20456;-84
2024/01/25 05:30:02;;;;;;;40.28;21.42;;;;;;;;;;10551493;28;20429;-84
2024/01/25 05:35:06;;;;;;;39.58;21.02;;;;;;;;;;10549953;28;20428;-84
2024/01/25 05:40:11;;;;;;;37.40;20.10;;;;;;;;;;10550726;28;20416;-82
2024/01/25 05:45:13;;;;;;;37.90;20.45;;;;;;;;;;10545697;28;20408;-84
2024/01/25 05:50:16;;;;;;;37.13;19.73;;;;;;;;;;10555236;27;20399;-83
2024/01/25 05:55:20;;;;;;;37.03;19.97;;;;;;;;;;10551900;28;20564;-84
2024/01/25 06:00:23;;;;;;;34.60;18.80;;;;;;;;;;10562049;28;20424;-82
2024/01/25 06:05:25;;;;;;;37.75;19.60;;;;;;;;;;10551370;28;20402;-83
2024/01/25 06:10:29;;;;;;;33.53;18.27;;;;;;;;;;10546058;28;20473;-84
2024/01/25 06:15:32;;;;;;;37.58;20.23;;;;;;;;;;10557655;28;20522;-83
2024/01/25 06:20:34;;;;;;;36.83;22.25;;;;;;;;;;10550502;28;20460;-83
2024/01/25 06:25:40;;;;;;;52.40;27.30;;;;;;;;;;10547087;28;20396;-83
2024/01/25 06:30:42;;;;;;;37.30;19.50;;;;;;;;;;10546400;28;20497;-83
2024/01/25 06:35:45;;;;;;;38.60;21.33;;;;;;;;;;10551174;28;20447;-84
2024/01/25 06:40:49;;;;;;;43.22;23.08;;;;;;;;;;10553017;28;20412;-83
2024/01/25 06:45:51;;;;;;;37.90;19.20;;;;;;;;;;10562979;28;20432;-83
2024/01/25 06:50:53;;;;;;;39.00;19.90;;;;;;;;;;10560397;28;20394;-83
2024/01/25 06:55:57;;;;;;;41.13;22.17;;;;;;;;;;10554265;28;20752;-83
2024/01/25 07:01:01;;;;;;;49.33;28.65;;;;;;;;;;10552081;28;20434;-81
2024/01/25 07:06:03;;;;;;;38.87;22.53;;;;;;;;;;10558643;27;20449;-82
2024/01/25 07:11:07;;;;;;;41.58;22.27;;;;;;;;;;10561638;28;20425;-82
2024/01/25 07:16:09;;;;;;;77.35;35.50;;;;;;;;;;10553679;28;20982;-83
2024/01/25 07:21:12;;;;;;;42.60;22.13;;;;;;;;;;10557674;28;20438;-82
2024/01/25 07:26:19;;;;;;;38.47;21.17;;;;;;;;;;10554697;28;20412;-82
2024/01/25 07:31:21;;;;;;;42.45;22.05;;;;;;;;;;10556372;28;20468;-82
2024/01/25 07:36:23;;;;;;;40.40;21.63;;;;;;;;;;10551167;28;20898;-82
2024/01/25 07:41:27;;;;;;;41.67;22.15;;;;;;;;;;10553396;28;20407;-80
2024/01/25 07:46:30;;;;;;;44.55;23.92;;;;;;;;;;10547464;28;20399;-83
2024/01/25 07:51:32;;;;;;;44.83;23.50;;;;;;;;;;10552577;28;20462;-83
2024/01/25 07:56:36;;;;;;;44.25;23.50;;;;;;;;;;10551010;28;20996;-83
2024/01/25 08:01:38;;;;;;;45.30;23.47;;;;;;;;;;10548586;28;20398;-82
2024/01/25 08:06:40;;;;;;;47.97;24.70;;;;;;;;;;10554408;28;20412;-83
2024/01/25 08:11:44;;;;;;;45.17;23.30;;;;;;;;;;10552480;28;20415;-82
2024/01/25 08:16:46;;;;;;;45.55;25.55;;;;;;;;;;10555633;28;20450;-82
2024/01/25 08:21:49;;;;;;;44.10;23.23;;;;;;;;;;10549689;28;20883;-83
2024/01/25 08:26:53;;;;;;;46.33;25.17;;;;;;;;;;10548393;28;20430;-82
2024/01/25 08:31:55;;;;;;;48.85;25.27;;;;;;;;;;10549639;28;20756;-83
2024/01/25 08:36:57;;;;;;;44.63;23.77;;;;;;;;;;10545009;28;20447;-82
2024/01/25 08:42:05;;;;;;;51.00;26.48;;;;;;;;;;10565544;28;20488;-83
2024/01/25 08:47:08;;;;;;;45.50;24.93;;;;;;;;;;10556330;28;20885;-81
2024/01/25 08:52:10;;;;;;;49.08;26.13;;;;;;;;;;10552520;28;20436;-82
2024/01/25 08:57:15;;;;;;;46.55;25.25;;;;;;;;;;10553730;28;20725;-82
2024/01/25 09:02:18;;;;;;;43.50;24.10;;;;;;;;;;10551791;28;20440;-81
2024/01/25 09:07:21;;;;;;;42.05;23.10;;;;;;;;;;10556325;28;20428;-82
2024/01/25 09:12:25;;;;;;;42.25;22.88;;;;;;;;;;10541686;28;20482;-82
2024/01/25 09:17:27;;;;;;;40.85;23.20;;;;;;;;;;10551308;28;20446;-81
2024/01/25 09:22:29;;;;;;;45.13;23.60;;;;;;;;;;10543396;28;20428;-81
2024/01/25 09:27:33;;;;;;;43.67;23.47;;;;;;;;;;10524013;28;20979;-81
2024/01/25 09:32:35;;;;;;;50.33;26.85;;;;;;;;;;10550205;28;20520;-82
2024/01/25 09:37:38;;;;;;;42.57;23.53;;;;;;;;;;10551871;28;20875;-81
2024/01/25 09:42:42;;;;;;;39.88;21.35;;;;;;;;;;10550812;28;20459;-82
2024/01/25 09:47:44;;;;;;;39.53;22.13;;;;;;;;;;10550816;28;20427;-82
2024/01/25 09:52:52;;;;;;;41.15;23.17;;;;;;;;;;10551106;28;20435;-81
2024/01/25 09:57:56;;;;;;;40.08;23.23;;;;;;;;;;10547640;28;20941;-82
2024/01/25 10:02:59;;;;;;;40.72;23.08;;;;;;;;;;10552164;28;20441;-82
2024/01/25 10:08:01;;;;;;;34.88;21.55;;;;;;;;;;10545247;28;20400;-80
2024/01/25 10:13:05;;;;;;;38.93;22.07;;;;;;;;;;10548545;28;20429;-83
2024/01/25 10:18:12;;;;;;;36.40;20.03;;;;;;;;;;10544411;28;20509;-82
2024/01/25 10:23:15;;;;;;;35.83;20.97;;;;;;;;;;10562538;28;20485;-80
2024/01/25 10:28:19;;;;;;;33.10;19.67;;;;;;;;;;10549280;28;20434;-81
2024/01/25 10:33:22;;;;;;;35.50;19.52;;;;;;;;;;10570644;28;20747;-83
2024/01/25 10:38:26;;;;;;;26.60;16.10;;;;;;;;;;10556077;28;20438;-82
2024/01/25 10:43:31;;;;;;;27.00;17.17;;;;;;;;;;10557377;28;20404;-84
2024/01/25 10:48:34;;;;;;;28.60;17.80;;;;;;;;;;10564038;28;20444;-83
2024/01/25 10:53:37;;;;;;;29.57;17.97;;;;;;;;;;10557414;28;20459;-83
2024/01/25 10:58:44;;;;;;;29.30;16.67;;;;;;;;;;10556284;28;20514;-83
2024/01/25 11:03:47;;;;;;;28.42;17.13;;;;;;;;;;10550005;28;20758;-84
2024/01/25 11:08:50;;;;;;;33.00;18.58;;;;;;;;;;10546834;28;20462;-84
2024/01/25 11:13:57;;;;;;;30.10;17.45;;;;;;;;;;10539059;28;20890;-83
2024/01/25 11:19:05;;;;;;;31.17;18.15;;;;;;;;;;10550473;28;20450;-84
2024/01/25 11:24:13;;;;;;;32.40;18.48;;;;;;;;;;10548476;28;21089;-82
2024/01/25 11:29:17;;;;;;;28.10;17.23;;;;;;;;;;10544707;28;20495;-83
2024/01/25 11:34:20;;;;;;;29.13;17.55;;;;;;;;;;10550179;28;20437;-83
2024/01/25 11:39:23;;;;;;;30.27;17.65;;;;;;;;;;10558075;28;20446;-84
2024/01/25 11:44:27;;;;;;;29.25;17.58;;;;;;;;;;10542140;28;20489;-83
2024/01/25 11:49:29;;;;;;;23.10;15.00;;;;;;;;;;10556008;28;20759;-83
2024/01/25 11:54:31;;;;;;;24.65;14.23;;;;;;;;;;10553884;28;20880;-83
2024/01/25 11:59:35;;;;;;;20.65;12.82;;;;;;;;;;10547524;28;20451;-83
2024/01/25 12:04:38;;;;;;;20.40;13.27;;;;;;;;;;10565801;27;20491;-83
2024/01/25 12:09:40;;;;;;;18.88;11.77;;;;;;;;;;10567717;27;20896;-83
2024/01/25 12:14:45;;;;;;;19.83;11.80;;;;;;;;;;10547186;28;20912;-83
2024/01/25 12:19:48;;;;;;;17.85;11.13;;;;;;;;;;10555393;28;20468;-82
2024/01/25 12:24:51;;;;;;;21.73;12.50;;;;;;;;;;10551192;28;20408;-82
2024/01/25 12:29:55;;;;;;;16.73;11.25;;;;;;;;;;10525976;28;20611;-82
2024/01/25 12:34:57;;;;;;;16.92;10.20;;;;;;;;;;10531087;28;20492;-81
2024/01/25 12:40:00;;;;;;;18.60;10.95;;;;;;;;;;10540751;28;20450;-81
2024/01/25 12:45:04;;;;;;;18.10;12.57;;;;;;;;;;10524733;28;20502;-82
2024/01/25 12:50:08;;;;;;;17.52;10.57;;;;;;;;;;10545544;28;20479;-82
2024/01/25 12:55:10;;;;;;;17.40;10.43;;;;;;;;;;10496284;28;20446;-81
2024/01/25 13:00:15;;;;;;;19.08;10.98;;;;;;;;;;10538364;28;21010;-82
2024/01/25 13:05:17;;;;;;;17.73;10.32;;;;;;;;;;10537799;28;20432;-82
2024/01/25 13:10:20;;;;;;;17.98;10.90;;;;;;;;;;10536216;28;20477;-82
2024/01/25 13:15:23;;;;;;;17.52;9.95;;;;;;;;;;10539011;28;21301;-82
2024/01/25 13:20:26;;;;;;;19.90;9.83;;;;;;;;;;10546565;28;20446;-83
2024/01/25 13:25:29;;;;;;;16.38;9.30;;;;;;;;;;10534221;28;20462;-83
2024/01/25 13:30:32;;;;;;;15.27;8.95;;;;;;;;;;10544539;28;20403;-83
2024/01/25 13:35:35;;;;;;;21.57;12.57;;;;;;;;;;10537755;28;20400;-82
2024/01/25 13:40:39;;;;;;;20.27;10.68;;;;;;;;;;10543935;28;22688;-82
2024/01/25 13:45:43;;;;;;;16.83;10.40;;;;;;;;;;10546892;28;20881;-82
2024/01/25 13:50:45;;;;;;;15.00;8.50;;;;;;;;;;10551021;28;20408;-82
2024/01/25 13:55:47;;;;;;;14.50;8.57;;;;;;;;;;10556879;28;20399;-81
2024/01/25 14:00:51;;;;;;;13.73;9.10;;;;;;;;;;10546849;28;20450;-82
2024/01/25 14:05:56;;;;;;;15.90;8.83;;;;;;;;;;10548761;28;20400;-82
2024/01/25 14:10:58;;;;;;;13.83;8.80;;;;;;;;;;10572409;28;20400;-82
2024/01/25 14:16:02;;;;;;;15.00;8.77;;;;;;;;;;10555335;28;20400;-83
2024/01/25 14:21:05;;;;;;;17.23;8.80;;;;;;;;;;10544647;28;20470;-82
2024/01/25 14:26:07;;;;;;;14.25;8.68;;;;;;;;;;10549366;28;20429;-82
2024/01/25 14:31:11;;;;;;;16.58;8.68;;;;;;;;;;10541068;28;20886;-82
2024/01/25 14:36:14;;;;;;;14.15;9.15;;;;;;;;;;10552982;28;20399;-82
2024/01/25 14:41:16;;;;;;;15.32;8.63;;;;;;;;;;10542777;28;20416;-83
2024/01/25 14:46:20;;;;;;;15.32;9.23;;;;;;;;;;10544298;28;20530;-82
2024/01/25 14:51:22;;;;;;;14.15;9.68;;;;;;;;;;10548655;28;20395;-83
2024/01/25 14:56:25;;;;;;;15.85;9.30;;;;;;;;;;10556795;28;20450;-82
2024/01/25 15:01:30;;;;;;;17.65;10.63;;;;;;;;;;10545133;28;20448;-82
2024/01/25 15:06:32;;;;;;;17.38;10.60;;;;;;;;;;10544725;28;20407;-82
2024/01/25 15:11:34;;;;;;;18.52;11.73;;;;;;;;;;10559019;28;20977;-82
2024/01/25 15:16:40;;;;;;;20.92;12.60;;;;;;;;;;10556163;28;20434;-83
2024/01/25 15:21:43;;;;;;;24.33;13.48;;;;;;;;;;10565307;28;20507;-82
2024/01/25 15:26:45;;;;;;;60.67;29.98;;;;;;;;;;10557725;28;20456;-87
2024/01/25 15:31:49;;;;;;;24.63;13.37;;;;;;;;;;10548065;27;20841;-81
2024/01/25 15:36:52;;;;;;;22.37;11.63;;;;;;;;;;10550812;28;21048;-83
2024/01/25 15:41:54;;;;;;;28.00;12.43;;;;;;;;;;10552985;27;20438;-84
2024/01/25 15:46:58;;;;;;;26.50;11.77;;;;;;;;;;10552840;28;20505;-83
2024/01/25 15:52:02;;;;;;;22.13;12.20;;;;;;;;;;10560994;27;20460;-83
2024/01/25 15:57:10;;;;;;;34.92;13.32;;;;;;;;;;10553689;28;20406;-83
2024/01/25 16:02:14;;;;;;;26.30;12.65;;;;;;;;;;10584096;28;20411;-81
2024/01/25 16:07:16;;;;;;;24.02;12.32;;;;;;;;;;10558294;28;20434;-83
2024/01/25 16:12:20;;;;;;;27.38;13.38;;;;;;;;;;10553771;27;20712;-84
2024/01/25 16:17:23;;;;;;;23.00;12.83;;;;;;;;;;10548390;28;20426;-83
2024/01/25 16:22:26;;;;;;;29.33;13.35;;;;;;;;;;10556220;28;20438;-83
2024/01/25 16:27:28;;;;;;;24.50;13.07;;;;;;;;;;10553045;28;20802;-84
2024/01/25 16:32:32;;;;;;;26.75;14.80;;;;;;;;;;10546511;28;20803;-84
2024/01/25 16:37:34;;;;;;;39.20;17.53;;;;;;;;;;10540106;28;20410;-82
2024/01/25 16:42:37;;;;;;;39.95;16.13;;;;;;;;;;10545619;28;20782;-84
2024/01/25 16:47:40;;;;;;;47.15;15.68;;;;;;;;;;10543230;28;20479;-83
2024/01/25 16:52:43;;;;;;;29.83;15.65;;;;;;;;;;10552208;27;20420;-83
2024/01/25 16:57:45;;;;;;;30.23;15.55;;;;;;;;;;10542672;28;20438;-84
2024/01/25 17:02:49;;;;;;;30.85;16.13;;;;;;;;;;10536569;28;20440;-84
2024/01/25 17:07:52;;;;;;;24.60;14.48;;;;;;;;;;10523981;28;20493;-84
2024/01/25 17:12:55;;;;;;;25.77;15.25;;;;;;;;;;10553222;28;20830;-84
2024/01/25 17:17:59;;;;;;;28.03;16.77;;;;;;;;;;10549851;27;20450;-83
2024/01/25 17:23:03;;;;;;;32.93;18.67;;;;;;;;;;10549884;28;20479;-84
2024/01/25 17:28:07;;;;;;;30.30;17.63;;;;;;;;;;10538664;28;20440;-85
2024/01/25 17:33:11;;;;;;;30.43;18.10;;;;;;;;;;10538906;28;20469;-84
2024/01/25 17:38:13;;;;;;;35.03;20.33;;;;;;;;;;10534029;28;20521;-84
2024/01/25 17:43:16;;;;;;;33.50;19.10;;;;;;;;;;10546517;28;20524;-84
2024/01/25 17:48:19;;;;;;;39.50;22.23;;;;;;;;;;10553844;28;20880;-83
2024/01/25 17:53:22;;;;;;;39.80;22.17;;;;;;;;;;10544266;27;20448;-83
2024/01/25 17:58:24;;;;;;;46.20;24.70;;;;;;;;;;10535871;28;20577;-83
2024/01/25 18:03:28;;;;;;;48.13;23.27;;;;;;;;;;10550249;28;20499;-84
2024/01/25 18:08:30;;;;;;;48.80;25.48;;;;;;;;;;10551911;28;20819;-83
2024/01/25 18:13:33;;;;;;;51.88;29.98;;;;;;;;;;10538252;28;20481;-83
2024/01/25 18:18:37;;;;;;;49.23;26.63;;;;;;;;;;10542070;28;20621;-83
2024/01/25 18:23:39;;;;;;;47.05;27.25;;;;;;;;;;10534681;28;20408;-83
2024/01/25 18:28:42;;;;;;;47.75;27.60;;;;;;;;;;10538013;28;20518;-83
2024/01/25 18:33:46;;;;;;;54.70;28.85;;;;;;;;;;10538807;28;20464;-83
2024/01/25 18:38:50;;;;;;;53.00;30.87;;;;;;;;;;10535917;28;20446;-82
2024/01/25 18:43:53;;;;;;;52.17;29.17;;;;;;;;;;10542843;28;20450;-82
2024/01/25 18:48:56;;;;;;;53.67;30.75;;;;;;;;;;10541962;28;20497;-82
2024/01/25 18:53:59;;;;;;;54.95;30.70;;;;;;;;;;10553005;28;20432;-82
2024/01/25 18:59:02;;;;;;;52.17;30.47;;;;;;;;;;10532920;28;20512;-82
2024/01/25 19:04:07;;;;;;;53.33;30.63;;;;;;;;;;10540641;28;20826;-82
2024/01/25 19:09:10;;;;;;;56.80;30.95;;;;;;;;;;10540458;28;20825;-83
2024/01/25 19:14:12;;;;;;;54.47;31.90;;;;;;;;;;10555935;28;20554;-83
2024/01/25 19:19:16;;;;;;;54.03;32.43;;;;;;;;;;10542709;28;20464;-83
2024/01/25 19:24:20;;;;;;;55.07;33.20;;;;;;;;;;10553006;28;20439;-82
2024/01/25 19:29:23;;;;;;;56.80;31.73;;;;;;;;;;10550183;28;20501;-84
2024/01/25 19:34:27;;;;;;;61.87;34.97;;;;;;;;;;10545245;28;20395;-84
2024/01/25 19:39:30;;;;;;;59.13;33.80;;;;;;;;;;10546379;28;20412;-83
2024/01/25 19:44:32;;;;;;;60.07;34.97;;;;;;;;;;10551977;28;20411;-84
2024/01/25 19:49:36;;;;;;;61.83;33.88;;;;;;;;;;10541432;28;20440;-83
2024/01/25 19:54:38;;;;;;;57.53;33.40;;;;;;;;;;10546247;27;20471;-84
2024/01/25 19:59:42;;;;;;;62.60;34.15;;;;;;;;;;10543966;28;20521;-85
2024/01/25 20:04:47;;;;;;;54.65;32.00;;;;;;;;;;10538586;28;20434;-84
2024/01/25 20:09:49;;;;;;;58.88;33.60;;;;;;;;;;10541167;28;20590;-84
2024/01/25 20:14:52;;;;;;;56.85;33.75;;;;;;;;;;10538912;28;20502;-84
2024/01/25 20:19:55;;;;;;;56.97;33.20;;;;;;;;;;10544772;28;20454;-83
2024/01/25 20:24:58;;;;;;;58.53;33.13;;;;;;;;;;10546606;28;21052;-85
2024/01/25 20:30:00;;;;;;;60.22;32.97;;;;;;;;;;10543723;28;20492;-84
2024/01/25 20:35:10;;;;;;;58.65;34.40;;;;;;;;;;10558672;27;20438;-85
2024/01/25 20:40:13;;;;;;;56.92;33.83;;;;;;;;;;10532159;28;20440;-83
2024/01/25 20:45:16;;;;;;;58.83;32.80;;;;;;;;;;10560366;28;20453;-85
2024/01/25 20:50:20;;;;;;;58.08;34.55;;;;;;;;;;10570091;27;20470;-84
2024/01/25 20:55:23;;;;;;;63.60;34.45;;;;;;;;;;10553197;27;20508;-84
2024/01/25 21:00:25;;;;;;;62.55;34.90;;;;;;;;;;10563404;27;20508;-84
2024/01/25 21:05:30;;;;;;;58.58;34.08;;;;;;;;;;10554172;27;20469;-84
2024/01/25 21:10:33;;;;;;;64.57;37.55;;;;;;;;;;10557469;28;20502;-83
2024/01/25 21:15:35;;;;;;;61.90;34.20;;;;;;;;;;10562422;28;20406;-85
2024/01/25 21:20:39;;;;;;;65.35;35.33;;;;;;;;;;10561518;28;20500;-84
2024/01/25 21:25:41;;;;;;;65.60;38.60;;;;;;;;;;10569561;28;20444;-84
2024/01/25 21:30:44;;;;;;;68.35;37.00;;;;;;;;;;10567732;28;20786;-84
2024/01/25 21:35:48;;;;;;;65.63;35.17;;;;;;;;;;10558626;28;20468;-84
2024/01/25 21:40:50;;;;;;;71.18;38.13;;;;;;;;;;10557699;28;20455;-85
2024/01/25 21:45:53;;;;;;;66.93;36.53;;;;;;;;;;10565850;28;20433;-84
2024/01/25 21:50:57;;;;;;;65.70;36.42;;;;;;;;;;10552672;28;20446;-84
2024/01/25 21:56:00;;;;;;;65.45;36.47;;;;;;;;;;10558309;28;20429;-82
2024/01/25 22:01:02;;;;;;;65.35;37.50;;;;;;;;;;10554538;28;20844;-84
2024/01/25 22:06:07;;;;;;;64.10;34.80;;;;;;;;;;10539340;28;20450;-83
2024/01/25 22:11:09;;;;;;;59.35;33.90;;;;;;;;;;10549750;28;20469;-83
2024/01/25 22:16:12;;;;;;;64.13;33.30;;;;;;;;;;10546959;28;20438;-84
2024/01/25 22:21:16;;;;;;;59.63;34.17;;;;;;;;;;10541032;28;20960;-83
2024/01/25 22:26:18;;;;;;;64.50;35.38;;;;;;;;;;10540846;28;20487;-83
2024/01/25 22:31:20;;;;;;;59.88;35.38;;;;;;;;;;10554650;28;20438;-83
2024/01/25 22:36:24;;;;;;;58.30;34.33;;;;;;;;;;10538719;28;20495;-85
2024/01/25 22:41:26;;;;;;;63.25;36.05;;;;;;;;;;10549241;28;20420;-83
2024/01/25 22:46:29;;;;;;;64.80;35.57;;;;;;;;;;10545404;28;20434;-83
2024/01/25 22:51:33;;;;;;;68.18;36.30;;;;;;;;;;10550016;28;20589;-84
2024/01/25 22:56:35;;;;;;;57.20;35.13;;;;;;;;;;10539135;28;20479;-83
2024/01/25 23:01:38;;;;;;;59.38;33.75;;;;;;;;;;10539215;28;20430;-84
2024/01/25 23:06:43;;;;;;;57.80;32.37;;;;;;;;;;10536031;28;20434;-85
2024/01/25 23:11:45;;;;;;;57.43;32.67;;;;;;;;;;10538231;27;20508;-83
